Dema, Kentucky
Current Conditions -  °F | °C
As of 4:55 PM on Saturday 25 Oct 2014 (Local Time) from KPBX Reporting Station
Overcast Overcast  
Wind Chill: 64°   Ceiling: 3100
Heat Index: 64°   Visibility: 10mi
Dew Point: 49°   Wind: 5mph
Humidity: 58%   Direction: 210°SSW
Pressure: 29.98"   Gusts: NA
Location:  37.43°N, 82.8°W
Report Text: KPBX 252055Z AUTO 21004KT 10SM BKN031 OVC039 18/10 A2998 RMK AO2 T01800096
Loading
Personal Weather Stations






























Interactive Weather Map
Tropical Storm Tracking
New forecast layout! Learn more

10-Day Weather Forecast

Advertisements
Track Severe Weather on mobile